Time;durP1;ratioP1;P1;durP2;ratioP2;P2;SDS_P1;SDS_P2;PMS_P1;PMS_P2;Temp;Humidity;BMP_temperature;BMP_pressure;BME280_temperature;BME280_humidity;BME280_pressure;Samples;Min_cycle;Max_cycle;Signal;HPM_P1;HPM_P2
2022/05/27 00:00:11;;;;;;;3.95;1.40;;;15.90;98.00;;;;;;6916173;28;20046;-88
2022/05/27 00:03:33;;;;;;;3.25;1.40;;;15.70;98.40;;;;;;6919209;28;20057;-88
2022/05/27 00:06:55;;;;;;;3.77;1.40;;;15.70;98.50;;;;;;6922231;28;20042;-88
2022/05/27 00:10:17;;;;;;;3.33;1.57;;;15.50;99.00;;;;;;6916085;28;20066;-89
2022/05/27 00:13:42;;;;;;;4.15;1.45;;;15.40;99.30;;;;;;6915420;28;20415;-88
2022/05/27 00:17:04;;;;;;;3.65;1.35;;;15.40;99.50;;;;;;6915748;28;20057;-88
2022/05/27 00:20:27;;;;;;;3.13;1.55;;;15.40;99.50;;;;;;6914767;28;20060;-88
2022/05/27 00:23:49;;;;;;;;;;;15.50;99.40;;;;;;6914906;28;20061;-88
2022/05/27 00:27:11;;;;;;;4.60;1.33;;;15.60;99.50;;;;;;6915708;28;20298;-88
2022/05/27 00:30:35;;;;;;;4.60;1.60;;;15.50;99.30;;;;;;6915626;28;20054;-88
2022/05/27 00:33:57;;;;;;;3.10;1.30;;;15.60;99.30;;;;;;6914457;28;20309;-87
2022/05/27 00:37:20;;;;;;;2.30;1.10;;;15.40;99.30;;;;;;6888440;28;20050;-87
2022/05/27 00:40:45;;;;;;;3.63;1.30;;;15.30;99.60;;;;;;6911074;28;20064;-87
2022/05/27 00:44:07;;;;;;;3.33;1.30;;;15.30;99.90;;;;;;6897576;28;20054;-87
2022/05/27 00:47:37;;;;;;;3.10;1.30;;;15.20;99.90;;;;;;6907022;28;20054;-88
2022/05/27 00:51:00;;;;;;;3.55;1.40;;;15.20;99.90;;;;;;6915148;28;20046;-88
2022/05/27 00:54:25;;;;;;;3.20;1.48;;;15.10;99.90;;;;;;6914550;28;20431;-87
2022/05/27 00:57:52;;;;;;;2.92;1.30;;;15.10;99.90;;;;;;6915306;28;20065;-88
2022/05/27 01:01:15;;;;;;;3.78;1.20;;;15.00;99.90;;;;;;6916433;28;20061;-88
2022/05/27 01:04:40;;;;;;;3.83;1.50;;;15.00;99.90;;;;;;6920280;28;20049;-87
2022/05/27 01:08:06;;;;;;;3.28;1.42;;;14.90;99.90;;;;;;6920455;28;20078;-87
2022/05/27 01:11:44;;;;;;;2.88;1.45;;;14.70;99.90;;;;;;6920136;28;20057;-88
2022/05/27 01:15:20;;;;;;;4.90;1.40;;;14.70;99.90;;;;;;6919799;28;20187;-87
2022/05/27 01:23:09;;;;;;;3.85;1.55;;;14.60;99.90;;;;;;6919381;28;20049;-88
2022/05/27 01:27:07;;;;;;;4.25;1.50;;;14.30;99.90;;;;;;6919495;28;20077;-87
2022/05/27 01:30:35;;;;;;;2.88;1.48;;;14.50;99.90;;;;;;6919466;28;20061;-87
2022/05/27 01:34:09;;;;;;;4.70;1.67;;;14.60;99.90;;;;;;6917483;28;20065;-87
2022/05/27 01:37:44;;;;;;;3.55;1.50;;;14.50;99.90;;;;;;6918776;28;20046;-87
2022/05/27 01:41:13;;;;;;;3.97;1.30;;;14.50;99.90;;;;;;6919452;28;20056;-87
2022/05/27 01:44:44;;;;;;;3.20;1.30;;;14.40;99.90;;;;;;6917826;28;20135;-87
2022/05/27 01:48:15;;;;;;;4.80;1.42;;;14.30;99.90;;;;;;6918013;28;20050;-86
2022/05/27 01:51:42;;;;;;;5.10;1.60;;;14.20;99.90;;;;;;6917941;28;20046;-87
2022/05/27 01:55:10;;;;;;;5.60;2.00;;;14.20;99.90;;;;;;6919173;28;20049;-87
2022/05/27 01:58:38;;;;;;;5.78;1.73;;;14.20;99.90;;;;;;6917923;28;20495;-87
2022/05/27 02:02:06;;;;;;;3.35;1.50;;;14.30;99.90;;;;;;6918798;28;20050;-87
2022/05/27 02:05:35;;;;;;;6.47;1.70;;;14.30;99.90;;;;;;6920502;28;20057;-88
2022/05/27 02:09:04;;;;;;;4.95;1.63;;;14.30;99.90;;;;;;6917549;28;20061;-87
2022/05/27 02:12:34;;;;;;;4.10;1.70;;;14.20;99.90;;;;;;6890972;28;20165;-88
2022/05/27 02:15:57;;;;;;;3.55;1.70;;;14.10;99.90;;;;;;6892187;28;20053;-87
2022/05/27 02:19:23;;;;;;;;;;;14.20;99.90;;;;;;6892217;28;20061;-87
2022/05/27 02:22:53;;;;;;;3.92;1.50;;;14.10;99.90;;;;;;6918469;28;19929;-86
2022/05/27 02:26:21;;;;;;;3.97;1.60;;;14.20;99.90;;;;;;6917658;28;20446;-88
2022/05/27 02:29:46;;;;;;;4.97;1.80;;;14.20;99.90;;;;;;6912748;28;20069;-88
2022/05/27 02:36:58;;;;;;;4.28;1.50;;;14.20;99.90;;;;;;6917539;28;20132;-88
2022/05/27 02:40:25;;;;;;;4.57;1.58;;;14.20;99.90;;;;;;6917347;28;20483;-88
2022/05/27 02:44:00;;;;;;;6.18;1.73;;;13.90;99.90;;;;;;6918080;28;20049;-88
2022/05/27 02:47:32;;;;;;;3.25;1.50;;;13.90;99.90;;;;;;6917933;28;20095;-88
2022/05/27 02:51:04;;;;;;;2.92;1.50;;;14.00;99.90;;;;;;6918028;28;20050;-87
2022/05/27 02:54:33;;;;;;;4.93;1.73;;;14.00;99.90;;;;;;6916510;28;20544;-87
2022/05/27 02:58:02;;;;;;;3.42;1.63;;;13.90;99.90;;;;;;6917045;28;20053;-87
2022/05/27 03:01:24;;;;;;;5.75;1.60;;;13.80;99.90;;;;;;6917154;28;20514;-89
2022/05/27 03:04:53;;;;;;;5.73;2.13;;;13.80;99.90;;;;;;6917374;28;20045;-90
2022/05/27 03:08:21;;;;;;;3.85;1.58;;;13.60;99.90;;;;;;6917553;28;20053;-88
2022/05/27 03:11:58;;;;;;;3.88;1.50;;;13.60;99.90;;;;;;6917453;28;20053;-89
2022/05/27 03:19:30;;;;;;;3.08;1.58;;;13.60;99.90;;;;;;7035974;27;20149;-90
2022/05/27 03:23:11;;;;;;;6.57;1.88;;;13.80;99.90;;;;;;7019449;28;20130;-90
2022/05/27 03:26:59;;;;;;;4.18;1.60;;;13.80;99.90;;;;;;6990192;28;20049;-89
2022/05/27 03:30:28;;;;;;;4.50;1.65;;;13.90;99.90;;;;;;7017079;28;20055;-90
2022/05/27 03:33:59;;;;;;;4.60;1.70;;;13.70;99.90;;;;;;7004066;28;20049;-90
2022/05/27 03:37:31;;;;;;;3.85;1.65;;;13.60;99.90;;;;;;7022317;28;20048;-88
2022/05/27 03:41:00;;;;;;;5.35;2.03;;;13.50;99.90;;;;;;7002527;28;20049;-89
2022/05/27 03:44:26;;;;;;;4.03;1.60;;;13.50;99.90;;;;;;6994136;28;20060;-89
2022/05/27 03:47:49;;;;;;;3.53;1.60;;;13.30;99.90;;;;;;6993880;28;20563;-89
2022/05/27 03:51:20;;;;;;;4.82;1.85;;;13.40;99.90;;;;;;6994264;28;20049;-89
2022/05/27 03:54:43;;;;;;;3.90;1.67;;;13.30;99.90;;;;;;7000649;28;20037;-89
2022/05/27 03:58:06;;;;;;;3.90;1.85;;;13.30;99.90;;;;;;7012489;28;20052;-88
2022/05/27 04:01:30;;;;;;;3.73;1.70;;;13.40;99.90;;;;;;7014693;28;20413;-90
2022/05/27 04:04:52;;;;;;;5.32;2.03;;;13.40;99.90;;;;;;7020498;28;20314;-88
2022/05/27 04:08:14;;;;;;;3.40;1.60;;;13.40;99.90;;;;;;7011831;28;20044;-89
2022/05/27 04:11:38;;;;;;;4.97;1.70;;;13.40;99.90;;;;;;6994116;28;20049;-90
2022/05/27 04:15:00;;;;;;;4.20;1.73;;;13.50;99.90;;;;;;7000099;28;20047;-90
2022/05/27 04:18:23;;;;;;;4.87;1.80;;;13.60;99.90;;;;;;7021005;28;20088;-90
2022/05/27 04:21:45;;;;;;;4.33;1.90;;;13.60;99.90;;;;;;7021253;28;20048;-88
2022/05/27 04:25:08;;;;;;;4.85;2.00;;;13.70;99.90;;;;;;6998925;28;20044;-90
2022/05/27 04:28:33;;;;;;;4.72;1.80;;;13.70;99.90;;;;;;6987785;28;20045;-87
2022/05/27 04:31:55;;;;;;;3.97;1.63;;;13.70;99.90;;;;;;6984361;28;20048;-87
2022/05/27 04:35:17;;;;;;;3.73;1.73;;;13.70;99.90;;;;;;7001181;28;20048;-88
2022/05/27 04:38:39;;;;;;;5.00;1.70;;;13.80;99.90;;;;;;6984755;28;20379;-87
2022/05/27 04:42:01;;;;;;;4.30;1.90;;;13.90;99.90;;;;;;6983795;28;20410;-87
2022/05/27 04:45:26;;;;;;;5.03;1.65;;;13.90;99.90;;;;;;6986098;28;20497;-87
2022/05/27 04:48:49;;;;;;;3.45;1.50;;;14.00;99.90;;;;;;6999819;28;20052;-87
2022/05/27 04:52:11;;;;;;;4.65;1.83;;;14.00;99.90;;;;;;6993745;28;20059;-89
2022/05/27 04:55:35;;;;;;;5.85;1.90;;;14.00;99.90;;;;;;6977921;28;20076;-87
2022/05/27 04:58:57;;;;;;;3.65;1.65;;;14.00;99.90;;;;;;6973362;28;20060;-86
2022/05/27 05:02:23;;;;;;;4.03;1.63;;;14.10;99.90;;;;;;6973243;28;20073;-88
2022/05/27 05:05:45;;;;;;;4.35;1.70;;;14.10;99.90;;;;;;6976289;28;20056;-91
2022/05/27 05:09:08;;;;;;;4.32;1.60;;;14.00;99.90;;;;;;6986433;28;20147;-83
2022/05/27 05:12:30;;;;;;;4.15;1.80;;;14.00;99.90;;;;;;6974579;28;20041;-83
2022/05/27 05:15:52;;;;;;;3.90;1.50;;;14.10;99.90;;;;;;6973827;28;20040;-82
2022/05/27 05:19:16;;;;;;;3.00;1.58;;;14.20;99.90;;;;;;6986444;28;20051;-83
2022/05/27 05:22:38;;;;;;;4.32;1.95;;;14.40;99.90;;;;;;6999946;28;20052;-83
2022/05/27 05:26:00;;;;;;;4.47;1.80;;;14.50;99.90;;;;;;7000191;28;20482;-83
2022/05/27 05:29:22;;;;;;;4.43;1.60;;;14.70;99.90;;;;;;6992975;28;20056;-85
2022/05/27 05:32:46;;;;;;;4.53;1.80;;;14.70;99.90;;;;;;6998474;28;20311;-85
2022/05/27 05:36:10;;;;;;;4.18;1.70;;;14.90;99.90;;;;;;6981475;28;20048;-85
2022/05/27 05:39:32;;;;;;;4.63;1.67;;;15.00;99.90;;;;;;6975549;28;20087;-85
2022/05/27 05:42:54;;;;;;;4.05;1.65;;;15.00;99.90;;;;;;6977043;28;20057;-86
2022/05/27 05:46:17;;;;;;;5.77;1.57;;;15.10;99.90;;;;;;6973100;28;20055;-85
2022/05/27 05:49:39;;;;;;;5.05;1.52;;;15.10;99.90;;;;;;6990428;28;20079;-86
2022/05/27 05:53:02;;;;;;;4.40;1.55;;;15.10;99.90;;;;;;6995741;28;20048;-83
2022/05/27 05:56:24;;;;;;;5.03;1.92;;;14.90;99.90;;;;;;6980582;28;20045;-83
2022/05/27 05:59:47;;;;;;;4.33;1.70;;;15.00;99.90;;;;;;6971469;28;20041;-82
2022/05/27 06:03:10;;;;;;;4.18;1.75;;;15.00;99.90;;;;;;6972124;28;20052;-83
2022/05/27 06:06:33;;;;;;;3.83;1.63;;;15.00;99.90;;;;;;6971276;28;20132;-83
2022/05/27 06:09:57;;;;;;;3.97;1.87;;;15.10;99.90;;;;;;6980735;28;20053;-83
2022/05/27 06:13:19;;;;;;;4.15;1.90;;;15.20;99.90;;;;;;6998564;28;20044;-82
2022/05/27 06:16:41;;;;;;;4.30;1.60;;;15.40;99.90;;;;;;6979866;28;20060;-82
2022/05/27 06:20:05;;;;;;;4.87;1.70;;;15.50;99.90;;;;;;6972823;28;20046;-82
2022/05/27 06:23:28;;;;;;;4.03;1.75;;;15.50;99.90;;;;;;6971976;28;20312;-83
2022/05/27 06:26:51;;;;;;;4.40;1.92;;;15.60;99.90;;;;;;6970276;28;20051;-83
2022/05/27 06:37:39;;;;;;;5.45;1.80;;;15.70;99.90;;;;;;6955175;28;20049;-83
2022/05/27 06:41:02;;;;;;;4.17;1.90;;;15.80;99.90;;;;;;6971873;28;20044;-83
2022/05/27 06:44:26;;;;;;;4.05;2.05;;;15.90;99.90;;;;;;6970537;28;20128;-83
2022/05/27 06:47:48;;;;;;;4.72;1.75;;;16.00;99.90;;;;;;6970354;28;20048;-84
2022/05/27 06:51:11;;;;;;;4.60;1.73;;;16.10;99.90;;;;;;6970959;28;20080;-83
2022/05/27 06:54:34;;;;;;;4.82;1.83;;;16.10;99.90;;;;;;6969373;28;20056;-83
2022/05/27 06:57:56;;;;;;;3.67;1.60;;;16.20;99.90;;;;;;6969820;28;20410;-83
2022/05/27 07:01:20;;;;;;;5.95;2.00;;;16.20;99.90;;;;;;6986038;28;20048;-82
2022/05/27 07:04:42;;;;;;;6.60;2.00;;;16.20;99.90;;;;;;6982909;28;20049;-84
2022/05/27 07:08:06;;;;;;;3.60;1.63;;;16.30;99.90;;;;;;6968594;28;20053;-84
2022/05/27 07:11:28;;;;;;;5.63;2.28;;;16.40;99.90;;;;;;6984452;28;20049;-83
2022/05/27 07:14:50;;;;;;;4.15;1.50;;;16.40;99.90;;;;;;6972184;28;20045;-83
2022/05/27 07:18:14;;;;;;;8.13;1.80;;;16.50;99.90;;;;;;6979512;28;20418;-84
2022/05/27 07:21:39;;;;;;;5.20;1.50;;;16.60;99.90;;;;;;6982487;28;20334;-84
2022/05/27 07:25:01;;;;;;;3.60;1.73;;;16.60;99.90;;;;;;6985827;28;20104;-83
2022/05/27 07:28:24;;;;;;;4.53;1.63;;;16.70;99.90;;;;;;6971613;28;20077;-84
2022/05/27 07:31:46;;;;;;;3.03;1.65;;;16.80;99.90;;;;;;6969446;28;20500;-84
2022/05/27 07:35:11;;;;;;;5.18;1.60;;;16.80;99.20;;;;;;6969291;28;20049;-84
2022/05/27 07:38:33;;;;;;;5.35;1.73;;;16.90;99.50;;;;;;6969472;28;20053;-84
2022/05/27 07:41:55;;;;;;;4.30;1.70;;;16.90;99.20;;;;;;6969438;28;20056;-83
2022/05/27 07:45:26;;;;;;;3.90;1.73;;;16.90;99.30;;;;;;6970856;28;20311;-84
2022/05/27 07:48:48;;;;;;;4.15;1.73;;;16.90;99.60;;;;;;6969057;28;20342;-83
2022/05/27 07:52:12;;;;;;;4.13;1.47;;;16.90;98.90;;;;;;6968925;28;20483;-83
2022/05/27 07:55:34;;;;;;;5.80;1.67;;;16.90;99.50;;;;;;6969114;28;20048;-83
2022/05/27 07:58:57;;;;;;;9.57;1.85;;;16.90;98.70;;;;;;6968246;28;20045;-84
2022/05/27 08:02:19;;;;;;;4.57;1.63;;;16.90;99.20;;;;;;6968564;28;20072;-83
2022/05/27 08:05:43;;;;;;;4.93;1.60;;;16.80;99.30;;;;;;6973850;28;20131;-84
2022/05/27 08:09:06;;;;;;;4.55;1.60;;;17.00;99.30;;;;;;6974725;28;20106;-84
2022/05/27 08:12:28;;;;;;;4.18;1.70;;;16.90;99.20;;;;;;6973866;28;20056;-83
2022/05/27 08:15:52;;;;;;;3.38;1.48;;;17.00;99.40;;;;;;6973984;28;20048;-83
2022/05/27 08:19:14;;;;;;;4.00;1.63;;;17.10;98.80;;;;;;6974554;28;20102;-84
2022/05/27 08:22:36;;;;;;;4.73;1.90;;;17.10;98.80;;;;;;6973141;28;20071;-83
2022/05/27 08:26:01;;;;;;;4.70;1.70;;;17.20;99.10;;;;;;6988064;28;20044;-88
2022/05/27 08:29:23;;;;;;;4.80;1.90;;;17.30;98.10;;;;;;7001368;28;20135;-82
2022/05/27 08:32:47;;;;;;;5.23;1.70;;;17.20;98.50;;;;;;7000962;28;20420;-87
2022/05/27 08:39:54;;;;;;;4.25;1.63;;;17.30;98.20;;;;;;6918370;28;20045;-90
2022/05/27 08:43:25;;;;;;;4.05;1.80;;;17.20;98.70;;;;;;6974803;28;20049;-90
2022/05/27 08:47:00;;;;;;;5.75;1.88;;;17.50;98.20;;;;;;6974693;28;20052;-88
2022/05/27 08:50:28;;;;;;;5.57;1.88;;;17.40;98.50;;;;;;6974447;28;20143;-89
2022/05/27 08:53:54;;;;;;;6.85;2.08;;;17.50;98.00;;;;;;6974799;28;20128;-90
2022/05/27 09:00:59;;;;;;;4.72;1.60;;;17.70;98.10;;;;;;6959150;28;20487;-90
2022/05/27 09:04:27;;;;;;;3.95;1.52;;;17.70;97.80;;;;;;6974036;28;20049;-90
2022/05/27 09:07:56;;;;;;;7.55;1.90;;;17.80;98.60;;;;;;6974057;28;20072;-90
2022/05/27 09:11:31;;;;;;;4.05;1.80;;;17.50;98.30;;;;;;6956682;28;20083;-91
2022/05/27 09:15:00;;;;;;;5.47;1.90;;;17.40;97.80;;;;;;6973755;28;20044;-90
2022/05/27 09:18:35;;;;;;;5.05;2.00;;;17.50;97.90;;;;;;6973299;28;20087;-90
2022/05/27 09:22:12;;;;;;;4.75;1.60;;;17.70;97.60;;;;;;6973550;28;20166;-90
2022/05/27 09:25:47;;;;;;;5.10;1.90;;;17.80;97.40;;;;;;6973134;28;20513;-91
2022/05/27 09:29:29;;;;;;;6.47;1.50;;;18.00;97.30;;;;;;6973503;28;20062;-91
2022/05/27 09:32:56;;;;;;;4.32;1.60;;;18.20;96.60;;;;;;6973252;28;20052;-90
2022/05/27 09:36:28;;;;;;;4.78;1.70;;;18.20;95.60;;;;;;6955566;28;20049;-91
2022/05/27 09:39:51;;;;;;;3.60;1.67;;;18.10;95.80;;;;;;6973273;28;20059;-91
2022/05/27 09:43:15;;;;;;;;;;;18.00;95.70;;;;;;6955887;28;20072;-89
2022/05/27 09:46:38;;;;;;;6.13;1.88;;;18.00;95.90;;;;;;6955509;28;20019;-90
2022/05/27 09:50:04;;;;;;;5.57;1.83;;;18.10;96.30;;;;;;6972821;28;20057;-89
2022/05/27 09:53:32;;;;;;;6.78;1.80;;;18.20;95.60;;;;;;6972659;28;20041;-90
2022/05/27 09:57:01;;;;;;;3.92;1.70;;;18.40;95.80;;;;;;6972660;28;20567;-90
2022/05/27 10:00:44;;;;;;;4.93;1.83;;;18.30;95.60;;;;;;6972748;28;20498;-90
2022/05/27 10:04:12;;;;;;;5.60;1.48;;;18.60;95.20;;;;;;6972276;28;20060;-89
2022/05/27 10:07:38;;;;;;;4.05;1.60;;;18.50;94.50;;;;;;6954241;28;20045;-90
2022/05/27 10:11:19;;;;;;;4.25;1.60;;;18.60;93.80;;;;;;6972150;28;20044;-89
2022/05/27 10:14:52;;;;;;;3.25;1.50;;;18.60;94.20;;;;;;6971917;28;20049;-89
2022/05/27 10:18:20;;;;;;;4.85;1.70;;;18.50;93.20;;;;;;6954100;28;20114;-90
2022/05/27 10:21:52;;;;;;;4.82;1.45;;;18.30;94.40;;;;;;6971801;28;20509;-90
2022/05/27 10:25:16;;;;;;;3.97;1.60;;;18.50;93.50;;;;;;6971287;28;20052;-91
2022/05/27 10:28:39;;;;;;;3.33;1.20;;;18.60;93.30;;;;;;6971695;28;20455;-82
2022/05/27 10:32:02;;;;;;;3.85;1.40;;;18.70;93.70;;;;;;6983822;28;20056;-89
2022/05/27 10:35:34;;;;;;;4.18;1.48;;;18.70;93.80;;;;;;6999201;28;20056;-89
2022/05/27 10:39:03;;;;;;;3.47;1.30;;;18.40;93.30;;;;;;6996802;28;20087;-88
2022/05/27 10:42:39;;;;;;;3.63;1.48;;;18.70;93.40;;;;;;6998315;28;20098;-89
2022/05/27 10:46:07;;;;;;;3.90;1.40;;;18.90;91.50;;;;;;6996714;28;20473;-85
2022/05/27 10:50:05;;;;;;;6.80;2.05;;;19.00;93.10;;;;;;6997971;28;20160;-85
2022/05/27 10:53:51;;;;;;;2.78;1.30;;;18.90;92.00;;;;;;6938919;28;20044;-86
2022/05/27 11:05:26;;;;;;;5.35;1.65;;;19.10;91.60;;;;;;6995200;28;20052;-88
2022/05/27 11:09:09;;;;;;;5.03;1.40;;;19.10;91.30;;;;;;6969030;28;20056;-88
2022/05/27 11:16:49;;;;;;;3.58;1.20;;;19.60;91.30;;;;;;6985013;28;20503;-86
2022/05/27 11:20:49;;;;;;;3.60;1.20;;;20.00;90.00;;;;;;6990051;28;20092;-88
2022/05/27 11:24:31;;;;;;;4.40;1.40;;;20.00;88.80;;;;;;6968701;28;20454;-87
2022/05/27 11:28:46;;;;;;;4.88;1.30;;;19.50;89.50;;;;;;6976785;28;20037;-85
2022/05/27 11:32:22;;;;;;;5.07;1.40;;;19.40;90.40;;;;;;6970720;28;20045;-86
2022/05/27 11:36:21;;;;;;;2.60;1.13;;;19.80;89.70;;;;;;6997620;28;20080;-87
2022/05/27 11:40:08;;;;;;;3.60;1.27;;;20.10;90.10;;;;;;6987218;28;20516;-86
2022/05/27 11:43:48;;;;;;;2.75;1.20;;;20.00;86.50;;;;;;6993985;28;20059;-87
2022/05/27 11:47:56;;;;;;;3.55;1.20;;;20.10;83.60;;;;;;7002798;28;20109;-86
2022/05/27 11:51:36;;;;;;;3.03;1.00;;;20.20;79.30;;;;;;6985877;28;20394;-86
2022/05/27 11:55:17;;;;;;;4.53;1.42;;;20.10;80.90;;;;;;6980290;28;20075;-86
2022/05/27 11:58:54;;;;;;;3.78;1.13;;;20.10;81.10;;;;;;7002284;28;20498;-86
2022/05/27 12:02:34;;;;;;;4.07;1.40;;;20.00;81.00;;;;;;6978479;28;20049;-87
2022/05/27 12:06:02;;;;;;;2.60;0.93;;;20.10;81.40;;;;;;6988866;28;20051;-87
2022/05/27 12:09:33;;;;;;;2.55;1.05;;;20.20;80.30;;;;;;6999431;28;20486;-85
2022/05/27 12:13:05;;;;;;;2.25;1.00;;;20.10;80.50;;;;;;6974423;28;20048;-86
2022/05/27 12:16:31;;;;;;;3.03;1.08;;;19.90;79.90;;;;;;6992808;28;20068;-86
2022/05/27 12:20:00;;;;;;;3.55;1.23;;;20.00;82.00;;;;;;6994622;28;20118;-86
2022/05/27 12:23:28;;;;;;;2.75;1.15;;;20.10;81.60;;;;;;6956274;28;20114;-86
2022/05/27 12:26:57;;;;;;;1.98;0.80;;;20.20;82.70;;;;;;6973731;28;20060;-86
2022/05/27 12:30:27;;;;;;;3.90;0.95;;;19.90;80.60;;;;;;6987706;28;20049;-86
2022/05/27 12:33:49;;;;;;;2.92;1.05;;;20.10;82.30;;;;;;6986211;28;20055;-85
2022/05/27 12:37:28;;;;;;;2.53;1.10;;;20.30;79.50;;;;;;6986743;28;20041;-86
2022/05/27 12:40:54;;;;;;;2.60;1.00;;;20.60;81.20;;;;;;6980593;28;20048;-87
2022/05/27 12:44:28;;;;;;;2.70;0.95;;;20.60;78.90;;;;;;6978354;28;20684;-86
2022/05/27 12:47:53;;;;;;;4.47;1.23;;;20.80;79.60;;;;;;6975516;28;20075;-86
2022/05/27 12:51:39;;;;;;;6.15;1.25;;;20.80;78.70;;;;;;7008630;28;20051;-86
2022/05/27 12:55:06;;;;;;;2.47;0.90;;;20.80;78.30;;;;;;7018783;28;20103;-86
2022/05/27 13:02:48;;;;;;;3.80;1.10;;;20.70;77.50;;;;;;7000834;28;20044;-87
2022/05/27 13:06:17;;;;;;;4.93;1.20;;;20.70;78.10;;;;;;6973274;28;20557;-86
2022/05/27 13:09:44;;;;;;;2.63;1.05;;;20.60;79.10;;;;;;6973074;28;20300;-86
2022/05/27 13:13:09;;;;;;;3.75;1.08;;;20.70;78.20;;;;;;6965823;28;20495;-86
2022/05/27 13:16:45;;;;;;;5.22;1.10;;;20.60;79.10;;;;;;6972475;28;20068;-85
2022/05/27 13:20:22;;;;;;;2.72;1.00;;;20.30;79.60;;;;;;6996894;28;20486;-87
2022/05/27 13:23:56;;;;;;;2.75;1.08;;;20.20;79.40;;;;;;6985143;28;20155;-82
2022/05/27 13:27:26;;;;;;;3.35;1.20;;;20.20;80.10;;;;;;6972399;28;20502;-80
2022/05/27 13:31:05;;;;;;;3.50;1.00;;;20.20;81.10;;;;;;6973579;28;20127;-82
2022/05/27 13:34:42;;;;;;;3.00;1.10;;;20.40;79.50;;;;;;6972184;28;20482;-81
2022/05/27 13:38:09;;;;;;;2.53;0.90;;;20.40;81.00;;;;;;6978442;28;20044;-82
2022/05/27 13:41:41;;;;;;;4.50;1.10;;;20.40;79.90;;;;;;6998427;28;20091;-81
2022/05/27 13:45:11;;;;;;;3.03;1.00;;;20.30;81.10;;;;;;6998484;28;20409;-82
2022/05/27 13:48:40;;;;;;;3.58;1.10;;;20.00;82.70;;;;;;6999347;28;20357;-82
2022/05/27 13:52:15;;;;;;;4.50;1.40;;;19.80;82.60;;;;;;6998598;28;20048;-82
2022/05/27 13:55:37;;;;;;;3.95;1.27;;;19.70;83.90;;;;;;6996280;28;20047;-89
2022/05/27 13:59:04;;;;;;;4.40;1.30;;;19.70;83.80;;;;;;6999822;28;20051;-83
2022/05/27 14:02:31;;;;;;;6.00;1.30;;;19.70;83.80;;;;;;6987399;28;20056;-91
2022/05/27 14:06:03;;;;;;;2.45;1.00;;;19.50;83.70;;;;;;6999864;28;20131;-93
2022/05/27 14:09:33;;;;;;;5.13;1.30;;;19.50;83.30;;;;;;7004251;28;20048;-90
2022/05/27 14:12:58;;;;;;;3.80;1.20;;;19.60;84.20;;;;;;6978604;28;20060;-91
2022/05/27 14:16:29;;;;;;;3.08;1.10;;;19.70;84.50;;;;;;6974133;28;20056;-91
2022/05/27 14:19:59;;;;;;;3.42;1.38;;;19.60;84.10;;;;;;6999769;28;20044;-84
2022/05/27 14:23:25;;;;;;;2.97;1.10;;;19.60;85.80;;;;;;6982279;28;20504;-92
2022/05/27 14:26:49;;;;;;;4.15;1.10;;;19.80;84.70;;;;;;6989276;28;20047;-88
2022/05/27 14:30:18;;;;;;;5.78;2.75;;;19.60;84.90;;;;;;6973189;28;20052;-89
2022/05/27 14:33:44;;;;;;;2.58;1.10;;;19.50;86.70;;;;;;6974269;28;20178;-91
2022/05/27 14:37:34;;;;;;;3.70;1.20;;;18.40;85.10;;;;;;6979459;28;20041;-89
2022/05/27 14:40:58;;;;;;;3.80;1.10;;;19.30;86.20;;;;;;6996073;28;20071;-90
2022/05/27 14:44:29;;;;;;;4.80;1.02;;;19.30;88.20;;;;;;6994022;28;20080;-90
2022/05/27 14:47:51;;;;;;;3.95;1.10;;;19.40;88.30;;;;;;6970946;28;20079;-91
2022/05/27 14:51:33;;;;;;;2.60;0.98;;;19.50;87.80;;;;;;6981058;28;20090;-90
2022/05/27 14:55:03;;;;;;;4.28;1.15;;;19.30;87.40;;;;;;6989886;28;20045;-90
2022/05/27 14:58:33;;;;;;;3.50;0.90;;;19.20;88.40;;;;;;6976534;28;20082;-89
2022/05/27 15:01:58;;;;;;;2.70;1.13;;;;;;;;;;6970105;28;20045;-90
2022/05/27 15:05:35;;;;;;;4.05;1.10;;;19.00;88.70;;;;;;6975690;28;20049;-89
2022/05/27 15:09:11;;;;;;;2.42;1.10;;;18.90;88.50;;;;;;6970563;28;20049;-88
2022/05/27 15:12:35;;;;;;;4.07;1.20;;;18.90;89.90;;;;;;6987152;28;20047;-90
2022/05/27 15:16:09;;;;;;;2.63;1.08;;;;;;;;;;6996439;28;20048;-90
2022/05/27 15:19:41;;;;;;;2.50;0.98;;;18.90;89.90;;;;;;6997910;28;20091;-88
2022/05/27 15:23:06;;;;;;;3.40;0.90;;;19.00;88.70;;;;;;6990282;28;20509;-87
2022/05/27 15:34:02;;;;;;;1.92;0.90;;;19.20;90.70;;;;;;6977532;28;20511;-86
2022/05/27 15:37:26;;;;;;;3.65;1.00;;;19.30;94.00;;;;;;6982590;28;20045;-85
2022/05/27 15:40:49;;;;;;;2.15;1.00;;;19.20;91.10;;;;;;6970192;28;20049;-85
2022/05/27 15:44:11;;;;;;;2.70;1.10;;;19.00;91.50;;;;;;6993066;28;20044;-85
2022/05/27 15:47:34;;;;;;;3.88;1.20;;;;;;;;;;6990267;28;20118;-87
2022/05/27 15:50:56;;;;;;;3.92;1.10;;;;;;;;;;6981535;28;20056;-86
2022/05/27 15:54:23;;;;;;;2.78;1.13;;;;;;;;;;6989334;28;20068;-85
2022/05/27 15:57:45;;;;;;;2.40;1.10;;;18.80;95.70;;;;;;6970607;28;20452;-84
2022/05/27 16:01:07;;;;;;;3.75;1.00;;;18.70;96.40;;;;;;6969594;28;20052;-85
2022/05/27 16:04:30;;;;;;;1.88;0.77;;;;;;;;;;6969169;28;20134;-84
2022/05/27 16:07:52;;;;;;;4.32;0.70;;;18.50;96.50;;;;;;6958667;28;20076;-84
2022/05/27 16:11:16;;;;;;;2.47;0.52;;;;;;;;;;6945988;28;20053;-86
2022/05/27 16:14:38;;;;;;;1.27;0.60;;;;;;;;;;6946060;28;20053;-85
2022/05/27 16:18:01;;;;;;;2.15;0.80;;;;;;;;;;6951858;28;20797;-86
2022/05/27 16:21:23;;;;;;;1.73;0.68;;;;;;;;;;6958410;28;20140;-85
2022/05/27 16:24:45;;;;;;;2.05;0.70;;;19.20;95.30;;;;;;6972670;28;20052;-85
2022/05/27 16:28:10;;;;;;;1.52;0.60;;;;;;;;;;6977385;28;20500;-86
2022/05/27 16:31:32;;;;;;;1.85;0.70;;;;;;;;;;6985354;28;20056;-85
2022/05/27 16:34:55;;;;;;;0.65;0.40;;;;;;;;;;6985002;28;20040;-86
2022/05/27 16:38:17;;;;;;;;;;;19.60;90.40;;;;;;6987325;28;20114;-89
2022/05/27 16:41:39;;;;;;;2.00;0.88;;;;;;;;;;6999696;28;19973;-92
2022/05/27 16:45:05;;;;;;;1.38;0.50;;;20.30;87.60;;;;;;6993337;28;20045;-93
2022/05/27 16:48:27;;;;;;;1.23;0.55;;;20.80;94.90;;;;;;6982756;28;20081;-93
2022/05/27 16:51:50;;;;;;;1.85;0.52;;;21.00;94.90;;;;;;6984397;28;20084;-93
2022/05/27 16:55:13;;;;;;;1.20;0.60;;;20.10;85.10;;;;;;7001739;28;20106;-92
2022/05/27 16:58:36;;;;;;;0.95;0.50;;;;;;;;;;6986275;28;20060;-93
2022/05/27 17:02:00;;;;;;;2.92;0.77;;;21.60;85.60;;;;;;6992273;28;20100;-88
2022/05/27 17:05:25;;;;;;;1.40;0.52;;;20.80;84.00;;;;;;6995016;28;20076;-93
2022/05/27 17:08:48;;;;;;;1.30;0.60;;;20.80;84.70;;;;;;6979069;28;20486;-93
2022/05/27 17:12:11;;;;;;;2.75;0.63;;;21.00;99.00;;;;;;6973665;28;20068;-89
2022/05/27 17:15:33;;;;;;;3.13;0.77;;;;;;;;;;6957218;28;20136;-93
2022/05/27 17:18:57;;;;;;;2.22;0.65;;;20.70;79.20;;;;;;6952740;28;20053;-90
2022/05/27 17:22:19;;;;;;;2.42;0.80;;;;;;;;;;6946048;28;20041;-81
2022/05/27 17:25:41;;;;;;;2.22;0.68;;;;;;;;;;6945312;28;20399;-91
2022/05/27 17:29:04;;;;;;;2.03;0.80;;;;;;;;;;6966071;28;20123;-94
2022/05/27 17:32:27;;;;;;;1.95;0.60;;;;;;;;;;6973291;28;20056;-91
2022/05/27 17:35:50;;;;;;;2.42;0.80;;;20.80;79.00;;;;;;6972547;28;20060;-90
2022/05/27 17:39:14;;;;;;;2.25;0.60;;;20.60;80.00;;;;;;6955148;28;20495;-94
2022/05/27 17:42:37;;;;;;;1.90;0.77;;;;;;;;;;6946064;28;20041;-94
2022/05/27 17:45:59;;;;;;;3.53;0.70;;;;;;;;;;6946149;28;20073;-96
2022/05/27 17:53:03;;;;;;;2.10;0.77;;;;;;;;;;6953032;28;20041;-94
2022/05/27 17:56:27;;;;;;;2.85;0.80;;;;;;;;;;6951117;28;20056;-87
2022/05/27 17:59:51;;;;;;;2.92;0.70;;;;;;;;;;6968528;28;20332;-95
2022/05/27 18:03:18;;;;;;;2.40;0.60;;;;;;;;;;6948712;28;20053;-96
2022/05/27 18:06:41;;;;;;;2.30;0.95;;;;;;;;;;6975524;28;20056;-96
2022/05/27 18:10:05;;;;;;;1.70;0.70;;;20.00;93.80;;;;;;6963896;28;20053;-95
2022/05/27 18:13:28;;;;;;;1.48;0.70;;;;;;;;;;6952904;28;20045;-95
2022/05/27 18:16:50;;;;;;;;;;;;;;;;;;6956497;28;20076;-96
2022/05/27 18:20:13;;;;;;;3.28;0.80;;;;;;;;;;6970693;28;19982;-96
2022/05/27 18:23:36;;;;;;;2.03;0.80;;;;;;;;;;6987977;28;20138;-93
2022/05/27 18:27:00;;;;;;;1.60;0.77;;;;;;;;;;6978383;28;20106;-96
2022/05/27 18:30:24;;;;;;;2.83;0.80;;;;;;;;;;7007867;28;20075;-96
2022/05/27 18:33:47;;;;;;;2.03;0.77;;;;;;;;;;7001791;28;20044;-95
2022/05/27 18:37:10;;;;;;;2.75;0.75;;;;;;;;;;7000898;28;20098;-95
2022/05/27 18:40:32;;;;;;;;;;;;;;;;;;6975544;28;20496;-96
2022/05/27 18:43:57;;;;;;;2.13;0.90;;;;;;;;;;6989641;28;19927;-96
2022/05/27 18:47:20;;;;;;;2.13;0.95;;;;;;;;;;7004847;28;20120;-96
2022/05/27 18:50:43;;;;;;;3.95;1.10;;;;;;;;;;7005231;28;20048;-96
2022/05/27 18:54:06;;;;;;;3.00;1.20;;;;;;;;;;7006508;28;20052;-96
2022/05/27 18:57:28;;;;;;;2.08;1.00;;;;;;;;;;6995692;28;20102;-92
2022/05/27 19:00:52;;;;;;;3.53;1.05;;;;;;;;;;6982002;28;20051;-89
